All Spectrum Aviation - Van Nuys Airport - KVNY

HOME

Condor Squadron KVNY Webcam

Visit our Electronics Store

Condor Squadron Webcam - Van Nuys Airport - KVNY
Picture taken: Tue, 15 Oct 2019 11:37:21 -0700
YouTube Channel!    Latest Timelapse Movie    Full Size Image    Regular Size Image    

2019/10/15 17:51 KVNY 151751Z VRB05KT 10SM CLR 24/08 A3002 RMK AO2 SLP158 T02440083 10244 20117 50003

HOME

Condor Squadron KVNY Webcam

Visit our Electronics Store